sensor_id;sensor_type;location;lat;lon;timestamp;pressure;altitude;pressure_sealevel;temperature;humidity
66742;BME280;53654;54.152;19.432;2022-08-06T00:02:24;101491.46;;;19.80;95.87
66742;BME280;53654;54.152;19.432;2022-08-06T00:04:57;101488.15;;;19.79;95.46
66742;BME280;53654;54.152;19.432;2022-08-06T00:07:27;101495.65;;;19.77;95.29
66742;BME280;53654;54.152;19.432;2022-08-06T00:10:04;101497.81;;;19.76;95.26
66742;BME280;53654;54.152;19.432;2022-08-06T00:12:34;101499.08;;;19.75;94.98
66742;BME280;53654;54.152;19.432;2022-08-06T00:15:04;101496.45;;;19.75;95.15
66742;BME280;53654;54.152;19.432;2022-08-06T00:17:44;101495.05;;;19.74;95.08
66742;BME280;53654;54.152;19.432;2022-08-06T00:20:14;101497.02;;;19.74;95.21
66742;BME280;53654;54.152;19.432;2022-08-06T00:22:57;101502.52;;;19.73;95.08
66742;BME280;53654;54.152;19.432;2022-08-06T00:25:26;101506.10;;;19.72;95.20
66742;BME280;53654;54.152;19.432;2022-08-06T00:27:54;101502.95;;;19.71;95.20
66742;BME280;53654;54.152;19.432;2022-08-06T00:30:22;101506.16;;;19.71;95.15
66742;BME280;53654;54.152;19.432;2022-08-06T00:32:51;101505.84;;;19.70;94.97
66742;BME280;53654;54.152;19.432;2022-08-06T00:35:20;101506.73;;;19.69;94.96
66742;BME280;53654;54.152;19.432;2022-08-06T00:37:55;101505.15;;;19.69;95.02
66742;BME280;53654;54.152;19.432;2022-08-06T00:40:28;101507.69;;;19.67;94.80
66742;BME280;53654;54.152;19.432;2022-08-06T00:43:00;101510.71;;;19.67;94.44
66742;BME280;53654;54.152;19.432;2022-08-06T00:45:35;101514.42;;;19.67;94.40
66742;BME280;53654;54.152;19.432;2022-08-06T00:48:13;101512.86;;;19.66;94.57
66742;BME280;53654;54.152;19.432;2022-08-06T00:50:58;101511.64;;;19.65;94.33
66742;BME280;53654;54.152;19.432;2022-08-06T00:53:28;101518.20;;;19.65;94.74
66742;BME280;53654;54.152;19.432;2022-08-06T00:56:01;101515.58;;;19.64;94.89
66742;BME280;53654;54.152;19.432;2022-08-06T00:58:36;101513.48;;;19.63;94.76
66742;BME280;53654;54.152;19.432;2022-08-06T01:01:08;101512.59;;;19.63;94.67
66742;BME280;53654;54.152;19.432;2022-08-06T01:03:45;101514.72;;;19.63;94.92
66742;BME280;53654;54.152;19.432;2022-08-06T01:06:19;101520.77;;;19.62;94.99
66742;BME280;53654;54.152;19.432;2022-08-06T01:09:08;101526.30;;;19.60;94.75
66742;BME280;53654;54.152;19.432;2022-08-06T01:11:38;101537.76;;;19.57;94.67
66742;BME280;53654;54.152;19.432;2022-08-06T01:14:06;101538.00;;;19.54;94.34
66742;BME280;53654;54.152;19.432;2022-08-06T01:16:43;101541.09;;;19.52;94.31
66742;BME280;53654;54.152;19.432;2022-08-06T01:25:30;101531.29;;;19.43;93.38
66742;BME280;53654;54.152;19.432;2022-08-06T01:28:30;101530.14;;;19.40;93.33
66742;BME280;53654;54.152;19.432;2022-08-06T01:31:10;101524.21;;;19.37;93.21
66742;BME280;53654;54.152;19.432;2022-08-06T01:33:44;101525.35;;;19.35;93.01
66742;BME280;53654;54.152;19.432;2022-08-06T01:36:22;101525.95;;;19.33;92.85
66742;BME280;53654;54.152;19.432;2022-08-06T01:38:57;101531.70;;;19.30;92.52
66742;BME280;53654;54.152;19.432;2022-08-06T01:41:36;101541.66;;;19.29;92.54
66742;BME280;53654;54.152;19.432;2022-08-06T01:44:33;101548.48;;;19.26;92.37
66742;BME280;53654;54.152;19.432;2022-08-06T01:47:07;101552.09;;;19.23;92.23
66742;BME280;53654;54.152;19.432;2022-08-06T01:49:46;101557.80;;;19.22;92.14
66742;BME280;53654;54.152;19.432;2022-08-06T01:52:36;101551.12;;;19.20;92.14
66742;BME280;53654;54.152;19.432;2022-08-06T01:55:11;101547.12;;;19.19;91.89
66742;BME280;53654;54.152;19.432;2022-08-06T01:57:50;101547.17;;;19.17;91.76
66742;BME280;53654;54.152;19.432;2022-08-06T02:00:41;101555.18;;;19.15;91.77
66742;BME280;53654;54.152;19.432;2022-08-06T02:03:33;101560.19;;;19.14;91.74
66742;BME280;53654;54.152;19.432;2022-08-06T02:06:37;101562.23;;;19.11;91.54
66742;BME280;53654;54.152;19.432;2022-08-06T02:09:11;101564.13;;;19.06;90.83
66742;BME280;53654;54.152;19.432;2022-08-06T02:12:04;101569.87;;;19.04;90.39
66742;BME280;53654;54.152;19.432;2022-08-06T02:14:50;101571.90;;;19.01;89.83
66742;BME280;53654;54.152;19.432;2022-08-06T02:17:24;101583.90;;;18.95;89.44
66742;BME280;53654;54.152;19.432;2022-08-06T02:20:16;101594.45;;;18.91;89.00
66742;BME280;53654;54.152;19.432;2022-08-06T02:23:06;101598.33;;;18.86;88.26
66742;BME280;53654;54.152;19.432;2022-08-06T02:25:38;101599.67;;;18.82;87.52
66742;BME280;53654;54.152;19.432;2022-08-06T02:28:09;101601.02;;;18.79;87.21
66742;BME280;53654;54.152;19.432;2022-08-06T02:30:54;101605.70;;;18.76;86.81
66742;BME280;53654;54.152;19.432;2022-08-06T02:33:23;101604.19;;;18.73;86.56
66742;BME280;53654;54.152;19.432;2022-08-06T02:36:52;101609.24;;;18.69;86.30
66742;BME280;53654;54.152;19.432;2022-08-06T02:39:36;101615.34;;;18.66;85.88
66742;BME280;53654;54.152;19.432;2022-08-06T02:42:31;101615.08;;;18.63;85.18
66742;BME280;53654;54.152;19.432;2022-08-06T02:50:36;101622.48;;;18.56;84.02
66742;BME280;53654;54.152;19.432;2022-08-06T02:53:11;101618.14;;;18.53;83.83
66742;BME280;53654;54.152;19.432;2022-08-06T02:56:07;101615.05;;;18.50;83.47
66742;BME280;53654;54.152;19.432;2022-08-06T02:58:39;101621.48;;;18.48;83.15
66742;BME280;53654;54.152;19.432;2022-08-06T03:01:29;101616.97;;;18.45;83.03
66742;BME280;53654;54.152;19.432;2022-08-06T03:04:11;101615.10;;;18.42;82.75
66742;BME280;53654;54.152;19.432;2022-08-06T03:06:42;101614.45;;;18.40;82.58
66742;BME280;53654;54.152;19.432;2022-08-06T03:09:15;101616.27;;;18.38;82.53
66742;BME280;53654;54.152;19.432;2022-08-06T03:11:45;101619.52;;;18.35;82.36
66742;BME280;53654;54.152;19.432;2022-08-06T03:14:16;101623.14;;;18.31;82.11
66742;BME280;53654;54.152;19.432;2022-08-06T03:17:06;101621.81;;;18.28;81.85
66742;BME280;53654;54.152;19.432;2022-08-06T03:19:35;101621.16;;;18.26;81.64
66742;BME280;53654;54.152;19.432;2022-08-06T03:22:25;101624.55;;;18.25;81.59
66742;BME280;53654;54.152;19.432;2022-08-06T03:25:12;101619.88;;;18.21;81.17
66742;BME280;53654;54.152;19.432;2022-08-06T03:27:43;101617.77;;;18.21;80.85
66742;BME280;53654;54.152;19.432;2022-08-06T03:30:14;101628.03;;;18.21;80.25
66742;BME280;53654;54.152;19.432;2022-08-06T03:33:03;101634.95;;;18.19;79.98
66742;BME280;53654;54.152;19.432;2022-08-06T03:35:53;101627.80;;;18.16;79.71
66742;BME280;53654;54.152;19.432;2022-08-06T03:38:23;101632.09;;;18.14;79.56
66742;BME280;53654;54.152;19.432;2022-08-06T03:40:57;101635.70;;;18.11;79.28
66742;BME280;53654;54.152;19.432;2022-08-06T03:43:29;101640.52;;;18.09;79.02
66742;BME280;53654;54.152;19.432;2022-08-06T03:46:24;101647.96;;;18.08;78.85
66742;BME280;53654;54.152;19.432;2022-08-06T03:48:57;101651.55;;;18.06;78.63
66742;BME280;53654;54.152;19.432;2022-08-06T03:51:27;101647.00;;;18.04;78.59
66742;BME280;53654;54.152;19.432;2022-08-06T03:54:20;101661.63;;;18.05;78.59
66742;BME280;53654;54.152;19.432;2022-08-06T03:57:06;101672.23;;;18.05;78.68
66742;BME280;53654;54.152;19.432;2022-08-06T03:59:39;101667.63;;;18.05;78.76
66742;BME280;53654;54.152;19.432;2022-08-06T04:02:30;101671.69;;;18.05;78.74
66742;BME280;53654;54.152;19.432;2022-08-06T04:05:19;101685.83;;;18.04;78.74
66742;BME280;53654;54.152;19.432;2022-08-06T04:07:53;101685.00;;;18.02;78.59
66742;BME280;53654;54.152;19.432;2022-08-06T04:10:26;101691.76;;;18.00;78.56
66742;BME280;53654;54.152;19.432;2022-08-06T04:13:09;101699.74;;;17.99;78.49
66742;BME280;53654;54.152;19.432;2022-08-06T04:15:57;101707.23;;;17.96;78.16
66742;BME280;53654;54.152;19.432;2022-08-06T04:18:33;101705.52;;;17.93;78.02
66742;BME280;53654;54.152;19.432;2022-08-06T04:21:14;101712.29;;;17.91;77.91
66742;BME280;53654;54.152;19.432;2022-08-06T04:23:57;101711.95;;;17.90;77.51
66742;BME280;53654;54.152;19.432;2022-08-06T04:26:27;101712.34;;;17.89;77.36
66742;BME280;53654;54.152;19.432;2022-08-06T04:28:59;101716.58;;;17.88;77.33
66742;BME280;53654;54.152;19.432;2022-08-06T04:31:29;101724.02;;;17.87;77.38
66742;BME280;53654;54.152;19.432;2022-08-06T04:34:24;101732.50;;;17.87;77.36
66742;BME280;53654;54.152;19.432;2022-08-06T04:36:58;101734.46;;;17.86;77.32
66742;BME280;53654;54.152;19.432;2022-08-06T04:39:29;101739.23;;;17.86;77.39
66742;BME280;53654;54.152;19.432;2022-08-06T04:42:16;101750.69;;;17.87;77.05
66742;BME280;53654;54.152;19.432;2022-08-06T04:44:46;101763.58;;;17.86;76.76
66742;BME280;53654;54.152;19.432;2022-08-06T04:47:30;101766.25;;;17.85;76.70
66742;BME280;53654;54.152;19.432;2022-08-06T04:50:09;101768.02;;;17.85;76.40
66742;BME280;53654;54.152;19.432;2022-08-06T04:52:39;101779.70;;;17.84;76.23
66742;BME280;53654;54.152;19.432;2022-08-06T04:55:21;101779.89;;;17.83;76.16
66742;BME280;53654;54.152;19.432;2022-08-06T04:58:05;101777.80;;;17.82;76.06
66742;BME280;53654;54.152;19.432;2022-08-06T05:00:44;101776.59;;;17.81;76.20
66742;BME280;53654;54.152;19.432;2022-08-06T05:03:33;101784.00;;;17.81;76.18
66742;BME280;53654;54.152;19.432;2022-08-06T05:06:25;101778.17;;;17.81;76.23
66742;BME280;53654;54.152;19.432;2022-08-06T05:09:03;101792.26;;;17.83;75.99
66742;BME280;53654;54.152;19.432;2022-08-06T05:14:52;101807.05;;;17.84;75.96
66742;BME280;53654;54.152;19.432;2022-08-06T05:17:25;101814.05;;;17.87;76.10
66742;BME280;53654;54.152;19.432;2022-08-06T05:20:11;101812.77;;;17.89;76.02
66742;BME280;53654;54.152;19.432;2022-08-06T05:23:06;101813.41;;;17.92;76.07
66742;BME280;53654;54.152;19.432;2022-08-06T05:25:49;101811.79;;;17.94;76.08
66742;BME280;53654;54.152;19.432;2022-08-06T05:28:23;101821.25;;;17.97;76.05
66742;BME280;53654;54.152;19.432;2022-08-06T05:30:55;101831.42;;;17.99;75.91
66742;BME280;53654;54.152;19.432;2022-08-06T05:33:28;101828.18;;;18.02;75.77
66742;BME280;53654;54.152;19.432;2022-08-06T05:35:58;101824.59;;;18.05;75.83
66742;BME280;53654;54.152;19.432;2022-08-06T05:38:38;101820.48;;;18.07;75.88
66742;BME280;53654;54.152;19.432;2022-08-06T05:41:27;101821.48;;;18.10;75.66
66742;BME280;53654;54.152;19.432;2022-08-06T05:44:01;101817.20;;;18.12;75.55
66742;BME280;53654;54.152;19.432;2022-08-06T05:46:33;101827.75;;;18.14;75.43
66742;BME280;53654;54.152;19.432;2022-08-06T05:49:17;101815.19;;;18.15;75.30
66742;BME280;53654;54.152;19.432;2022-08-06T05:52:29;101821.48;;;18.17;74.82
66742;BME280;53654;54.152;19.432;2022-08-06T05:55:06;101829.59;;;18.18;74.11
66742;BME280;53654;54.152;19.432;2022-08-06T05:57:42;101834.35;;;18.18;72.76
66742;BME280;53654;54.152;19.432;2022-08-06T06:00:22;101844.05;;;18.19;71.90
66742;BME280;53654;54.152;19.432;2022-08-06T06:03:01;101847.20;;;18.20;71.13
66742;BME280;53654;54.152;19.432;2022-08-06T06:05:31;101845.73;;;18.23;71.05
66742;BME280;53654;54.152;19.432;2022-08-06T06:08:19;101857.13;;;18.26;70.49
66742;BME280;53654;54.152;19.432;2022-08-06T06:11:06;101861.48;;;18.29;69.98
66742;BME280;53654;54.152;19.432;2022-08-06T06:13:37;101862.48;;;18.31;69.34
66742;BME280;53654;54.152;19.432;2022-08-06T06:21:53;101870.27;;;18.39;69.02
66742;BME280;53654;54.152;19.432;2022-08-06T06:24:34;101877.95;;;18.43;68.89
66742;BME280;53654;54.152;19.432;2022-08-06T06:27:11;101875.91;;;18.47;68.86
66742;BME280;53654;54.152;19.432;2022-08-06T06:30:08;101875.80;;;18.52;68.17
66742;BME280;53654;54.152;19.432;2022-08-06T06:32:55;101866.15;;;18.56;67.68
66742;BME280;53654;54.152;19.432;2022-08-06T06:35:32;101877.19;;;18.61;67.22
66742;BME280;53654;54.152;19.432;2022-08-06T06:41:16;101875.90;;;18.71;66.42
66742;BME280;53654;54.152;19.432;2022-08-06T06:47:02;101889.81;;;18.73;65.59
66742;BME280;53654;54.152;19.432;2022-08-06T06:49:43;101895.83;;;18.72;65.08
66742;BME280;53654;54.152;19.432;2022-08-06T06:52:34;101901.16;;;18.71;64.57
66742;BME280;53654;54.152;19.432;2022-08-06T06:58:07;101903.33;;;18.77;65.00
66742;BME280;53654;54.152;19.432;2022-08-06T07:00:37;101901.44;;;18.82;65.13
66742;BME280;53654;54.152;19.432;2022-08-06T07:03:16;101895.99;;;18.87;65.26
66742;BME280;53654;54.152;19.432;2022-08-06T07:05:48;101899.10;;;18.90;65.32
66742;BME280;53654;54.152;19.432;2022-08-06T07:08:42;101900.79;;;18.94;65.55
66742;BME280;53654;54.152;19.432;2022-08-06T07:11:22;101898.47;;;18.94;65.67
66742;BME280;53654;54.152;19.432;2022-08-06T07:13:55;101892.61;;;18.95;65.92
66742;BME280;53654;54.152;19.432;2022-08-06T07:16:26;101893.67;;;18.95;66.13
66742;BME280;53654;54.152;19.432;2022-08-06T07:19:07;101901.79;;;18.96;66.31
66742;BME280;53654;54.152;19.432;2022-08-06T07:21:41;101903.36;;;18.97;66.71
66742;BME280;53654;54.152;19.432;2022-08-06T07:24:20;101906.36;;;18.97;66.96
66742;BME280;53654;54.152;19.432;2022-08-06T07:27:08;101911.02;;;18.94;67.20
66742;BME280;53654;54.152;19.432;2022-08-06T07:29:58;101913.68;;;18.94;67.61
66742;BME280;53654;54.152;19.432;2022-08-06T07:32:28;101920.02;;;18.95;68.03
66742;BME280;53654;54.152;19.432;2022-08-06T07:35:08;101917.48;;;18.98;68.11
66742;BME280;53654;54.152;19.432;2022-08-06T07:37:54;101920.94;;;19.01;67.96
66742;BME280;53654;54.152;19.432;2022-08-06T07:40:32;101925.42;;;19.06;68.00
66742;BME280;53654;54.152;19.432;2022-08-06T07:43:07;101932.62;;;19.15;68.21
66742;BME280;53654;54.152;19.432;2022-08-06T07:45:53;101938.71;;;19.25;67.97
66742;BME280;53654;54.152;19.432;2022-08-06T07:48:28;101942.75;;;19.34;67.66
66742;BME280;53654;54.152;19.432;2022-08-06T07:51:01;101944.31;;;19.41;67.72
66742;BME280;53654;54.152;19.432;2022-08-06T07:53:33;101944.29;;;19.49;67.70
66742;BME280;53654;54.152;19.432;2022-08-06T07:56:24;101942.22;;;19.55;67.45
66742;BME280;53654;54.152;19.432;2022-08-06T07:58:53;101938.96;;;19.57;66.66
66742;BME280;53654;54.152;19.432;2022-08-06T08:01:26;101938.10;;;19.63;66.44
66742;BME280;53654;54.152;19.432;2022-08-06T08:04:05;101945.00;;;19.76;66.39
66742;BME280;53654;54.152;19.432;2022-08-06T08:07:04;101958.59;;;19.90;66.29
66742;BME280;53654;54.152;19.432;2022-08-06T08:09:41;101973.21;;;20.05;65.96
66742;BME280;53654;54.152;19.432;2022-08-06T08:12:31;101973.30;;;20.20;65.13
66742;BME280;53654;54.152;19.432;2022-08-06T08:15:05;101976.36;;;20.31;64.56
66742;BME280;53654;54.152;19.432;2022-08-06T08:17:49;101986.39;;;20.41;63.92
66742;BME280;53654;54.152;19.432;2022-08-06T08:20:30;101987.91;;;20.49;63.87
66742;BME280;53654;54.152;19.432;2022-08-06T08:23:04;101987.98;;;20.52;63.50
66742;BME280;53654;54.152;19.432;2022-08-06T08:25:35;101995.15;;;20.56;63.31
66742;BME280;53654;54.152;19.432;2022-08-06T08:28:11;101997.61;;;20.56;62.38
66742;BME280;53654;54.152;19.432;2022-08-06T08:30:44;101992.90;;;20.54;62.19
66742;BME280;53654;54.152;19.432;2022-08-06T08:33:18;101994.36;;;20.58;61.47
66742;BME280;53654;54.152;19.432;2022-08-06T08:35:48;101997.36;;;20.59;60.83
66742;BME280;53654;54.152;19.432;2022-08-06T08:38:32;102005.98;;;20.55;60.17
66742;BME280;53654;54.152;19.432;2022-08-06T08:41:04;102004.77;;;20.54;60.58
66742;BME280;53654;54.152;19.432;2022-08-06T08:43:44;102009.38;;;20.54;60.13
66742;BME280;53654;54.152;19.432;2022-08-06T08:46:39;102013.83;;;20.54;60.57
66742;BME280;53654;54.152;19.432;2022-08-06T08:52:26;102013.88;;;20.52;59.65
66742;BME280;53654;54.152;19.432;2022-08-06T08:55:05;102012.95;;;20.54;59.28
66742;BME280;53654;54.152;19.432;2022-08-06T08:57:55;102015.88;;;20.62;58.69
66742;BME280;53654;54.152;19.432;2022-08-06T09:00:44;102021.83;;;20.70;58.26
66742;BME280;53654;54.152;19.432;2022-08-06T09:03:19;102034.66;;;20.74;58.06
66742;BME280;53654;54.152;19.432;2022-08-06T09:05:49;102040.98;;;20.70;57.94
66742;BME280;53654;54.152;19.432;2022-08-06T09:08:20;102043.50;;;20.63;57.82
66742;BME280;53654;54.152;19.432;2022-08-06T09:11:09;102047.52;;;20.53;58.46
66742;BME280;53654;54.152;19.432;2022-08-06T09:14:00;102056.52;;;20.42;59.02
66742;BME280;53654;54.152;19.432;2022-08-06T09:16:31;102060.70;;;20.31;59.36
66742;BME280;53654;54.152;19.432;2022-08-06T09:19:00;102062.77;;;20.21;59.80
66742;BME280;53654;54.152;19.432;2022-08-06T09:21:30;102064.67;;;20.16;60.18
66742;BME280;53654;54.152;19.432;2022-08-06T09:23:58;102075.95;;;20.18;60.24
66742;BME280;53654;54.152;19.432;2022-08-06T09:26:31;102080.06;;;20.23;60.26
66742;BME280;53654;54.152;19.432;2022-08-06T09:29:21;102086.54;;;20.33;60.60
66742;BME280;53654;54.152;19.432;2022-08-06T09:32:01;102090.01;;;20.43;60.44
66742;BME280;53654;54.152;19.432;2022-08-06T09:34:45;102090.70;;;20.49;60.13
66742;BME280;53654;54.152;19.432;2022-08-06T09:37:27;102094.26;;;20.49;59.75
66742;BME280;53654;54.152;19.432;2022-08-06T09:40:19;102099.08;;;20.48;59.58
66742;BME280;53654;54.152;19.432;2022-08-06T09:42:49;102101.45;;;20.46;59.82
66742;BME280;53654;54.152;19.432;2022-08-06T09:45:20;102107.89;;;20.43;59.94
66742;BME280;53654;54.152;19.432;2022-08-06T09:48:08;102108.52;;;20.40;60.09
66742;BME280;53654;54.152;19.432;2022-08-06T09:50:49;102116.40;;;20.36;60.26
66742;BME280;53654;54.152;19.432;2022-08-06T09:53:18;102113.02;;;20.30;60.53
66742;BME280;53654;54.152;19.432;2022-08-06T09:55:50;102113.13;;;20.26;60.82
66742;BME280;53654;54.152;19.432;2022-08-06T09:58:42;102119.76;;;20.29;61.07
66742;BME280;53654;54.152;19.432;2022-08-06T10:01:14;102118.73;;;20.35;61.12
66742;BME280;53654;54.152;19.432;2022-08-06T10:03:52;102124.77;;;20.42;61.04
66742;BME280;53654;54.152;19.432;2022-08-06T10:06:51;102126.98;;;20.45;60.34
66742;BME280;53654;54.152;19.432;2022-08-06T10:09:23;102124.16;;;20.51;59.95
66742;BME280;53654;54.152;19.432;2022-08-06T10:12:19;102120.14;;;20.61;60.00
66742;BME280;53654;54.152;19.432;2022-08-06T10:14:53;102113.87;;;20.70;59.19
66742;BME280;53654;54.152;19.432;2022-08-06T10:17:23;102116.59;;;20.74;58.40
66742;BME280;53654;54.152;19.432;2022-08-06T10:20:08;102129.67;;;20.75;58.17
66742;BME280;53654;54.152;19.432;2022-08-06T10:22:49;102131.66;;;20.74;58.58
66742;BME280;53654;54.152;19.432;2022-08-06T10:25:20;102138.02;;;20.75;58.76
66742;BME280;53654;54.152;19.432;2022-08-06T10:27:57;102138.64;;;20.78;58.82
66742;BME280;53654;54.152;19.432;2022-08-06T10:30:28;102138.34;;;20.89;58.53
66742;BME280;53654;54.152;19.432;2022-08-06T10:33:06;102135.42;;;20.98;58.80
66742;BME280;53654;54.152;19.432;2022-08-06T10:35:55;102138.93;;;21.05;58.87
66742;BME280;53654;54.152;19.432;2022-08-06T10:38:34;102146.35;;;21.12;58.87
66742;BME280;53654;54.152;19.432;2022-08-06T10:41:19;102147.83;;;21.16;58.46
66742;BME280;53654;54.152;19.432;2022-08-06T10:44:08;102151.67;;;21.12;58.08
66742;BME280;53654;54.152;19.432;2022-08-06T10:46:37;102145.59;;;21.07;58.37
66742;BME280;53654;54.152;19.432;2022-08-06T10:49:09;102148.83;;;21.00;58.34
66742;BME280;53654;54.152;19.432;2022-08-06T10:51:58;102144.90;;;20.89;58.70
66742;BME280;53654;54.152;19.432;2022-08-06T10:54:31;102154.00;;;20.81;59.31
66742;BME280;53654;54.152;19.432;2022-08-06T10:57:00;102153.23;;;20.76;59.84
66742;BME280;53654;54.152;19.432;2022-08-06T10:59:33;102152.60;;;20.67;60.29
66742;BME280;53654;54.152;19.432;2022-08-06T11:02:31;102152.21;;;20.56;60.40
66742;BME280;53654;54.152;19.432;2022-08-06T11:05:10;102146.23;;;20.41;60.64
66742;BME280;53654;54.152;19.432;2022-08-06T11:08:15;102140.98;;;20.31;60.89
66742;BME280;53654;54.152;19.432;2022-08-06T11:11:20;102140.30;;;20.23;60.97
66742;BME280;53654;54.152;19.432;2022-08-06T11:14:01;102139.80;;;20.28;61.08
66742;BME280;53654;54.152;19.432;2022-08-06T11:16:31;102145.85;;;20.42;60.57
66742;BME280;53654;54.152;19.432;2022-08-06T11:19:08;102144.48;;;20.53;59.40
66742;BME280;53654;54.152;19.432;2022-08-06T11:24:29;102146.80;;;20.65;58.17
66742;BME280;53654;54.152;19.432;2022-08-06T11:30:20;102143.40;;;20.79;58.28
66742;BME280;53654;54.152;19.432;2022-08-06T11:32:53;102140.77;;;20.85;57.41
66742;BME280;53654;54.152;19.432;2022-08-06T11:41:49;102140.92;;;21.04;55.09
66742;BME280;53654;54.152;19.432;2022-08-06T11:44:26;102140.98;;;21.02;54.20
66742;BME280;53654;54.152;19.432;2022-08-06T11:47:11;102135.95;;;20.98;53.55
66742;BME280;53654;54.152;19.432;2022-08-06T11:52:42;102133.48;;;20.98;52.48
66742;BME280;53654;54.152;19.432;2022-08-06T11:55:15;102128.42;;;21.01;52.86
66742;BME280;53654;54.152;19.432;2022-08-06T12:01:01;102139.50;;;21.04;52.05
66742;BME280;53654;54.152;19.432;2022-08-06T12:03:49;102136.54;;;20.97;52.21
66742;BME280;53654;54.152;19.432;2022-08-06T12:06:21;102135.78;;;20.91;51.95
66742;BME280;53654;54.152;19.432;2022-08-06T12:09:07;102132.44;;;20.90;52.41
66742;BME280;53654;54.152;19.432;2022-08-06T12:11:40;102140.55;;;20.92;52.28
66742;BME280;53654;54.152;19.432;2022-08-06T12:14:37;102141.73;;;20.88;52.07
66742;BME280;53654;54.152;19.432;2022-08-06T12:17:18;102152.11;;;20.78;52.30
66742;BME280;53654;54.152;19.432;2022-08-06T12:19:49;102146.05;;;20.67;52.23
66742;BME280;53654;54.152;19.432;2022-08-06T12:22:32;102147.96;;;20.56;52.96
66742;BME280;53654;54.152;19.432;2022-08-06T12:25:05;102149.66;;;20.52;53.23
66742;BME280;53654;54.152;19.432;2022-08-06T12:27:40;102150.92;;;20.51;53.76
66742;BME280;53654;54.152;19.432;2022-08-06T12:30:21;102153.50;;;20.54;53.27
66742;BME280;53654;54.152;19.432;2022-08-06T12:33:06;102152.27;;;20.54;52.21
66742;BME280;53654;54.152;19.432;2022-08-06T12:36:01;102150.40;;;20.51;51.45
66742;BME280;53654;54.152;19.432;2022-08-06T12:38:31;102147.80;;;20.49;51.11
66742;BME280;53654;54.152;19.432;2022-08-06T12:41:07;102151.66;;;20.50;51.49
66742;BME280;53654;54.152;19.432;2022-08-06T12:43:47;102150.08;;;20.56;50.80
66742;BME280;53654;54.152;19.432;2022-08-06T12:46:25;102148.35;;;20.61;50.02
66742;BME280;53654;54.152;19.432;2022-08-06T12:48:58;102141.63;;;20.60;49.65
66742;BME280;53654;54.152;19.432;2022-08-06T12:51:30;102147.24;;;20.62;49.70
66742;BME280;53654;54.152;19.432;2022-08-06T12:54:01;102147.13;;;20.66;49.49
66742;BME280;53654;54.152;19.432;2022-08-06T12:56:31;102144.27;;;20.67;48.38
66742;BME280;53654;54.152;19.432;2022-08-06T12:59:08;102140.45;;;20.70;48.43
66742;BME280;53654;54.152;19.432;2022-08-06T13:01:51;102140.19;;;20.80;48.13
66742;BME280;53654;54.152;19.432;2022-08-06T13:04:44;102137.85;;;20.87;47.83
66742;BME280;53654;54.152;19.432;2022-08-06T13:07:14;102141.92;;;21.00;48.01
66742;BME280;53654;54.152;19.432;2022-08-06T13:09:47;102137.65;;;21.18;46.73
66742;BME280;53654;54.152;19.432;2022-08-06T13:12:36;102142.52;;;21.34;45.84
66742;BME280;53654;54.152;19.432;2022-08-06T13:15:26;102150.63;;;21.35;46.17
66742;BME280;53654;54.152;19.432;2022-08-06T13:18:15;102146.85;;;21.31;45.95
66742;BME280;53654;54.152;19.432;2022-08-06T13:21:16;102155.94;;;21.24;46.15
66742;BME280;53654;54.152;19.432;2022-08-06T13:23:47;102154.02;;;21.16;46.39
66742;BME280;53654;54.152;19.432;2022-08-06T13:26:19;102155.13;;;21.09;46.87
66742;BME280;53654;54.152;19.432;2022-08-06T13:29:13;102151.02;;;21.05;47.08
66742;BME280;53654;54.152;19.432;2022-08-06T13:32:08;102154.70;;;21.00;47.16
66742;BME280;53654;54.152;19.432;2022-08-06T13:34:57;102157.67;;;20.95;47.55
66742;BME280;53654;54.152;19.432;2022-08-06T13:38:04;102157.87;;;20.88;47.74
66742;BME280;53654;54.152;19.432;2022-08-06T13:40:48;102163.17;;;20.82;48.24
66742;BME280;53654;54.152;19.432;2022-08-06T13:43:34;102168.14;;;20.83;48.20
66742;BME280;53654;54.152;19.432;2022-08-06T13:46:12;102173.52;;;20.81;48.48
66742;BME280;53654;54.152;19.432;2022-08-06T13:48:50;102178.09;;;20.74;48.14
66742;BME280;53654;54.152;19.432;2022-08-06T13:51:21;102175.50;;;20.66;48.38
66742;BME280;53654;54.152;19.432;2022-08-06T13:53:57;102177.14;;;20.58;48.45
66742;BME280;53654;54.152;19.432;2022-08-06T13:56:43;102169.29;;;20.54;48.52
66742;BME280;53654;54.152;19.432;2022-08-06T13:59:19;102170.97;;;20.51;48.49
66742;BME280;53654;54.152;19.432;2022-08-06T14:02:06;102179.52;;;20.48;48.84
66742;BME280;53654;54.152;19.432;2022-08-06T14:04:35;102178.60;;;20.44;48.48
66742;BME280;53654;54.152;19.432;2022-08-06T14:07:04;102174.13;;;20.38;48.45
66742;BME280;53654;54.152;19.432;2022-08-06T14:09:32;102174.56;;;20.35;49.04
66742;BME280;53654;54.152;19.432;2022-08-06T14:12:20;102178.73;;;20.31;49.21
66742;BME280;53654;54.152;19.432;2022-08-06T14:14:57;102184.36;;;20.25;49.39
66742;BME280;53654;54.152;19.432;2022-08-06T14:17:26;102182.77;;;20.19;49.19
66742;BME280;53654;54.152;19.432;2022-08-06T14:20:02;102185.39;;;20.13;49.10
66742;BME280;53654;54.152;19.432;2022-08-06T14:22:46;102185.11;;;20.10;49.17
66742;BME280;53654;54.152;19.432;2022-08-06T14:25:16;102191.02;;;20.08;49.30
66742;BME280;53654;54.152;19.432;2022-08-06T14:27:44;102187.91;;;20.04;49.42
66742;BME280;53654;54.152;19.432;2022-08-06T14:30:14;102187.98;;;20.02;49.37
66742;BME280;53654;54.152;19.432;2022-08-06T14:33:01;102188.02;;;20.01;49.67
66742;BME280;53654;54.152;19.432;2022-08-06T14:35:46;102190.65;;;20.01;49.77